Falling Rock, West Virginia
Current Conditions -  °F | °C
As of 10:54 AM on Friday 24 Oct 2014 (Local Time) from KCRW Reporting Station
Moderate Fog Moderate Fog  
Wind Chill: 44°   Ceiling: 25000
Heat Index: 44°   Visibility: 0.5mi
Dew Point: 43°   Wind: 3mph
Humidity: 96%   Direction: 360°N
Pressure: 30.13"   Gusts: NA
Location:  38.47°N, 81.4°W
Report Text: KCRW 241454Z 36003KT 1/2SM FG SCT000 SCT012 BKN250 07/06 A3013 RMK AO2 SLP207 FG SCT000 T00670061 50002 RVRNO
Loading
Personal Weather Stations






























Interactive Weather Map
Tropical Storm Tracking
New forecast layout! Learn more

10-Day Weather Forecast

Advertisements
Track Severe Weather on mobile